sensor_id;sensor_type;location;lat;lon;timestamp;pressure;altitude;pressure_sealevel;temperature;humidity
78411;BME280;67706;51.074;-1.796;2024-02-04T00:00:56;102352.44;;;11.19;100.00
78411;BME280;67706;51.074;-1.796;2024-02-04T00:03:22;102346.06;;;11.18;100.00
78411;BME280;67706;51.074;-1.796;2024-02-04T00:05:49;102344.19;;;11.19;100.00
78411;BME280;67706;51.074;-1.796;2024-02-04T00:08:16;102334.78;;;11.22;100.00
78411;BME280;67706;51.074;-1.796;2024-02-04T00:10:43;102338.53;;;11.20;100.00
78411;BME280;67706;51.074;-1.796;2024-02-04T00:13:10;102338.22;;;11.24;100.00
78411;BME280;67706;51.074;-1.796;2024-02-04T00:15:37;102338.59;;;11.29;100.00
78411;BME280;67706;51.074;-1.796;2024-02-04T00:18:05;102338.91;;;11.26;100.00
78411;BME280;67706;51.074;-1.796;2024-02-04T00:20:32;102337.91;;;11.27;100.00
78411;BME280;67706;51.074;-1.796;2024-02-04T00:22:59;102327.59;;;11.29;100.00
78411;BME280;67706;51.074;-1.796;2024-02-04T00:25:25;102338.25;;;11.32;100.00
78411;BME280;67706;51.074;-1.796;2024-02-04T00:27:54;102336.03;;;11.35;100.00
78411;BME280;67706;51.074;-1.796;2024-02-04T00:30:21;102339.97;;;11.33;100.00
78411;BME280;67706;51.074;-1.796;2024-02-04T00:32:47;102331.34;;;11.28;100.00
78411;BME280;67706;51.074;-1.796;2024-02-04T00:35:15;102333.13;;;11.37;100.00
78411;BME280;67706;51.074;-1.796;2024-02-04T00:37:42;102330.38;;;11.37;100.00
78411;BME280;67706;51.074;-1.796;2024-02-04T00:40:10;102339.63;;;11.36;100.00
78411;BME280;67706;51.074;-1.796;2024-02-04T00:42:37;102327.06;;;11.33;100.00
78411;BME280;67706;51.074;-1.796;2024-02-04T00:45:04;102341.69;;;11.34;100.00
78411;BME280;67706;51.074;-1.796;2024-02-04T00:47:31;102340.13;;;11.31;100.00
78411;BME280;67706;51.074;-1.796;2024-02-04T00:49:57;102345.47;;;11.33;100.00
78411;BME280;67706;51.074;-1.796;2024-02-04T00:52:26;102343.56;;;11.33;100.00
78411;BME280;67706;51.074;-1.796;2024-02-04T00:54:52;102338.59;;;11.29;100.00
78411;BME280;67706;51.074;-1.796;2024-02-04T00:57:19;102335.31;;;11.33;100.00
78411;BME280;67706;51.074;-1.796;2024-02-04T00:59:45;102334.81;;;11.30;100.00
78411;BME280;67706;51.074;-1.796;2024-02-04T01:02:12;102329.31;;;11.30;100.00
78411;BME280;67706;51.074;-1.796;2024-02-04T01:04:39;102331.53;;;11.26;100.00
78411;BME280;67706;51.074;-1.796;2024-02-04T01:07:05;102336.16;;;11.26;100.00
78411;BME280;67706;51.074;-1.796;2024-02-04T01:09:34;102340.66;;;11.27;100.00
78411;BME280;67706;51.074;-1.796;2024-02-04T01:12:01;102332.53;;;11.25;100.00
78411;BME280;67706;51.074;-1.796;2024-02-04T01:14:28;102322.59;;;11.24;100.00
78411;BME280;67706;51.074;-1.796;2024-02-04T01:16:55;102321.72;;;11.24;100.00
78411;BME280;67706;51.074;-1.796;2024-02-04T01:19:21;102327.59;;;11.29;100.00
78411;BME280;67706;51.074;-1.796;2024-02-04T01:21:48;102332.22;;;11.28;100.00
78411;BME280;67706;51.074;-1.796;2024-02-04T01:24:14;102312.09;;;11.19;100.00
78411;BME280;67706;51.074;-1.796;2024-02-04T01:26:42;102330.66;;;11.26;100.00
78411;BME280;67706;51.074;-1.796;2024-02-04T01:29:08;102329.31;;;11.30;100.00
78411;BME280;67706;51.074;-1.796;2024-02-04T01:31:35;102330.34;;;11.29;100.00
78411;BME280;67706;51.074;-1.796;2024-02-04T01:34:02;102322.44;;;11.26;100.00
78411;BME280;67706;51.074;-1.796;2024-02-04T01:36:28;102308.50;;;11.27;100.00
78411;BME280;67706;51.074;-1.796;2024-02-04T01:38:55;102303.88;;;11.28;100.00
78411;BME280;67706;51.074;-1.796;2024-02-04T01:41:22;102291.84;;;11.20;100.00
78411;BME280;67706;51.074;-1.796;2024-02-04T01:43:51;102304.94;;;11.27;100.00
78411;BME280;67706;51.074;-1.796;2024-02-04T01:46:18;102291.00;;;11.20;100.00
78411;BME280;67706;51.074;-1.796;2024-02-04T01:48:45;102292.56;;;11.23;100.00
78411;BME280;67706;51.074;-1.796;2024-02-04T01:51:13;102286.03;;;11.24;100.00
78411;BME280;67706;51.074;-1.796;2024-02-04T01:53:41;102280.00;;;11.20;100.00
78411;BME280;67706;51.074;-1.796;2024-02-04T01:56:11;102283.78;;;11.19;100.00
78411;BME280;67706;51.074;-1.796;2024-02-04T01:58:39;102294.97;;;11.26;100.00
78411;BME280;67706;51.074;-1.796;2024-02-04T02:01:07;102293.56;;;11.22;100.00
78411;BME280;67706;51.074;-1.796;2024-02-04T02:03:34;102302.50;;;11.24;100.00
78411;BME280;67706;51.074;-1.796;2024-02-04T02:06:03;102303.03;;;11.27;100.00
78411;BME280;67706;51.074;-1.796;2024-02-04T02:08:30;102291.50;;;11.24;100.00
78411;BME280;67706;51.074;-1.796;2024-02-04T02:11:00;102300.44;;;11.26;100.00
78411;BME280;67706;51.074;-1.796;2024-02-04T02:13:29;102281.91;;;11.28;100.00
78411;BME280;67706;51.074;-1.796;2024-02-04T02:16:03;102290.16;;;11.28;100.00
78411;BME280;67706;51.074;-1.796;2024-02-04T02:18:38;102288.97;;;11.30;100.00
78411;BME280;67706;51.074;-1.796;2024-02-04T02:21:11;102280.91;;;11.29;100.00
78411;BME280;67706;51.074;-1.796;2024-02-04T02:23:48;102287.09;;;11.31;100.00
78411;BME280;67706;51.074;-1.796;2024-02-04T02:26:21;102284.47;;;11.29;100.00
78411;BME280;67706;51.074;-1.796;2024-02-04T02:28:49;102287.59;;;11.34;100.00
78411;BME280;67706;51.074;-1.796;2024-02-04T02:31:16;102292.72;;;11.29;100.00
78411;BME280;67706;51.074;-1.796;2024-02-04T02:33:42;102287.59;;;11.34;100.00
78411;BME280;67706;51.074;-1.796;2024-02-04T02:36:13;102279.50;;;11.25;100.00
78411;BME280;67706;51.074;-1.796;2024-02-04T02:38:47;102291.72;;;11.30;100.00
78411;BME280;67706;51.074;-1.796;2024-02-04T02:41:16;102278.47;;;11.26;100.00
78411;BME280;67706;51.074;-1.796;2024-02-04T02:43:47;102287.06;;;11.23;100.00
78411;BME280;67706;51.074;-1.796;2024-02-04T02:46:14;102282.94;;;11.27;100.00
78411;BME280;67706;51.074;-1.796;2024-02-04T02:48:41;102283.28;;;11.24;100.00
78411;BME280;67706;51.074;-1.796;2024-02-04T02:51:08;102280.16;;;11.18;100.00
78411;BME280;67706;51.074;-1.796;2024-02-04T02:53:34;102284.63;;;11.19;100.00
78411;BME280;67706;51.074;-1.796;2024-02-04T02:56:01;102280.69;;;11.22;100.00
78411;BME280;67706;51.074;-1.796;2024-02-04T02:58:28;102283.94;;;11.17;100.00
78411;BME280;67706;51.074;-1.796;2024-02-04T03:00:56;102281.72;;;11.21;100.00
78411;BME280;67706;51.074;-1.796;2024-02-04T03:03:22;102271.22;;;11.16;100.00
78411;BME280;67706;51.074;-1.796;2024-02-04T03:05:49;102263.34;;;11.22;100.00
78411;BME280;67706;51.074;-1.796;2024-02-04T03:08:16;102266.78;;;11.24;100.00
78411;BME280;67706;51.074;-1.796;2024-02-04T03:10:42;102277.78;;;11.24;100.00
78411;BME280;67706;51.074;-1.796;2024-02-04T03:13:09;102272.97;;;11.17;100.00
78411;BME280;67706;51.074;-1.796;2024-02-04T03:15:36;102270.22;;;11.17;100.00
78411;BME280;67706;51.074;-1.796;2024-02-04T03:18:04;102266.09;;;11.13;100.00
78411;BME280;67706;51.074;-1.796;2024-02-04T03:20:30;102265.03;;;11.14;100.00
78411;BME280;67706;51.074;-1.796;2024-02-04T03:22:57;102272.97;;;11.17;100.00
78411;BME280;67706;51.074;-1.796;2024-02-04T03:25:24;102275.34;;;11.20;100.00
78411;BME280;67706;51.074;-1.796;2024-02-04T03:27:53;102268.13;;;11.11;100.00
78411;BME280;67706;51.074;-1.796;2024-02-04T03:30:20;102272.94;;;11.09;100.00
78411;BME280;67706;51.074;-1.796;2024-02-04T03:32:47;102268.47;;;11.16;100.00
78411;BME280;67706;51.074;-1.796;2024-02-04T03:35:15;102271.22;;;11.16;100.00
78411;BME280;67706;51.074;-1.796;2024-02-04T03:37:41;102264.38;;;11.20;100.00
78411;BME280;67706;51.074;-1.796;2024-02-04T03:40:09;102262.66;;;11.19;100.00
78411;BME280;67706;51.074;-1.796;2024-02-04T03:42:36;102267.47;;;11.17;100.00
78411;BME280;67706;51.074;-1.796;2024-02-04T03:45:03;102256.09;;;11.12;100.00
78411;BME280;67706;51.074;-1.796;2024-02-04T03:47:29;102266.25;;;11.12;100.00
78411;BME280;67706;51.074;-1.796;2024-02-04T03:49:56;102253.38;;;11.12;100.00
78411;BME280;67706;51.074;-1.796;2024-02-04T03:52:24;102257.66;;;11.07;100.00
78411;BME280;67706;51.074;-1.796;2024-02-04T03:54:51;102257.47;;;11.08;100.00
78411;BME280;67706;51.074;-1.796;2024-02-04T03:57:17;102251.97;;;11.00;100.00
78411;BME280;67706;51.074;-1.796;2024-02-04T03:59:44;102260.72;;;11.04;100.00
78411;BME280;67706;51.074;-1.796;2024-02-04T04:02:12;102260.56;;;11.05;100.00
78411;BME280;67706;51.074;-1.796;2024-02-04T04:04:39;102266.75;;;11.07;100.00
78411;BME280;67706;51.074;-1.796;2024-02-04T04:07:07;102269.66;;;11.06;100.00
78411;BME280;67706;51.074;-1.796;2024-02-04T04:09:35;102254.03;;;11.06;100.00
78411;BME280;67706;51.074;-1.796;2024-02-04T04:12:01;102247.84;;;11.04;100.00
78411;BME280;67706;51.074;-1.796;2024-02-04T04:14:28;102247.16;;;11.02;100.00
78411;BME280;67706;51.074;-1.796;2024-02-04T04:16:55;102246.63;;;10.99;100.00
78411;BME280;67706;51.074;-1.796;2024-02-04T04:19:21;102238.91;;;11.02;100.00
78411;BME280;67706;51.074;-1.796;2024-02-04T04:21:48;102250.78;;;11.03;100.00
78411;BME280;67706;51.074;-1.796;2024-02-04T04:24:14;102245.78;;;11.06;100.00
78411;BME280;67706;51.074;-1.796;2024-02-04T04:26:46;102240.31;;;11.06;100.00
78411;BME280;67706;51.074;-1.796;2024-02-04T04:29:13;102224.50;;;11.08;100.00
78411;BME280;67706;51.074;-1.796;2024-02-04T04:31:39;102225.69;;;10.98;100.00
78411;BME280;67706;51.074;-1.796;2024-02-04T04:34:06;102226.75;;;11.05;100.00
78411;BME280;67706;51.074;-1.796;2024-02-04T04:36:33;102223.81;;;11.06;100.00
78411;BME280;67706;51.074;-1.796;2024-02-04T04:38:59;102231.38;;;11.04;100.00
78411;BME280;67706;51.074;-1.796;2024-02-04T04:41:26;102222.97;;;11.06;100.00
78411;BME280;67706;51.074;-1.796;2024-02-04T04:43:54;102223.31;;;11.11;100.00
78411;BME280;67706;51.074;-1.796;2024-02-04T04:46:21;102222.28;;;11.04;100.00
78411;BME280;67706;51.074;-1.796;2024-02-04T04:48:47;102224.38;;;11.18;100.00
78411;BME280;67706;51.074;-1.796;2024-02-04T04:51:14;102217.84;;;11.11;100.00
78411;BME280;67706;51.074;-1.796;2024-02-04T04:53:41;102224.03;;;11.13;100.00
78411;BME280;67706;51.074;-1.796;2024-02-04T04:56:07;102225.41;;;11.17;100.00
78411;BME280;67706;51.074;-1.796;2024-02-04T04:58:35;102218.00;;;11.09;100.00
78411;BME280;67706;51.074;-1.796;2024-02-04T05:01:04;102215.44;;;11.08;100.00
78411;BME280;67706;51.074;-1.796;2024-02-04T05:03:31;102209.78;;;11.09;100.00
78411;BME280;67706;51.074;-1.796;2024-02-04T05:05:57;102215.25;;;11.09;100.00
78411;BME280;67706;51.074;-1.796;2024-02-04T05:08:26;102217.47;;;11.06;100.00
78411;BME280;67706;51.074;-1.796;2024-02-04T05:10:53;102208.41;;;11.13;100.00
78411;BME280;67706;51.074;-1.796;2024-02-04T05:13:19;102207.03;;;11.09;100.00
78411;BME280;67706;51.074;-1.796;2024-02-04T05:15:46;102213.91;;;11.13;100.00
78411;BME280;67706;51.074;-1.796;2024-02-04T05:18:14;102219.72;;;11.10;100.00
78411;BME280;67706;51.074;-1.796;2024-02-04T05:20:41;102210.09;;;11.14;100.00
78411;BME280;67706;51.074;-1.796;2024-02-04T05:23:08;102211.50;;;11.18;100.00
78411;BME280;67706;51.074;-1.796;2024-02-04T05:25:35;102216.66;;;11.22;100.00
78411;BME280;67706;51.074;-1.796;2024-02-04T05:28:02;102212.19;;;11.20;100.00
78411;BME280;67706;51.074;-1.796;2024-02-04T05:30:28;102209.09;;;11.24;100.00
78411;BME280;67706;51.074;-1.796;2024-02-04T05:32:54;102205.84;;;11.20;100.00
78411;BME280;67706;51.074;-1.796;2024-02-04T05:35:22;102205.50;;;11.23;100.00
78411;BME280;67706;51.074;-1.796;2024-02-04T05:37:49;102208.25;;;11.23;100.00
78411;BME280;67706;51.074;-1.796;2024-02-04T05:40:15;102218.03;;;11.26;100.00
78411;BME280;67706;51.074;-1.796;2024-02-04T05:42:44;102197.94;;;11.25;100.00
78411;BME280;67706;51.074;-1.796;2024-02-04T05:45:10;102212.53;;;11.26;100.00
78411;BME280;67706;51.074;-1.796;2024-02-04T05:47:37;102200.00;;;11.31;100.00
78411;BME280;67706;51.074;-1.796;2024-02-04T05:50:05;102200.56;;;11.35;100.00
78411;BME280;67706;51.074;-1.796;2024-02-04T05:52:36;102205.19;;;11.34;100.00
78411;BME280;67706;51.074;-1.796;2024-02-04T05:55:03;102199.50;;;11.36;100.00
78411;BME280;67706;51.074;-1.796;2024-02-04T05:57:30;102200.38;;;11.36;100.00
78411;BME280;67706;51.074;-1.796;2024-02-04T05:59:57;102196.75;;;11.36;100.00
78411;BME280;67706;51.074;-1.796;2024-02-04T06:02:24;102197.13;;;11.33;100.00
78411;BME280;67706;51.074;-1.796;2024-02-04T06:04:51;102200.88;;;11.40;100.00
78411;BME280;67706;51.074;-1.796;2024-02-04T06:07:18;102193.69;;;11.39;100.00
78411;BME280;67706;51.074;-1.796;2024-02-04T06:09:46;102199.38;;;11.45;100.00
78411;BME280;67706;51.074;-1.796;2024-02-04T06:12:12;102190.25;;;11.45;100.00
78411;BME280;67706;51.074;-1.796;2024-02-04T06:14:39;102185.09;;;11.42;100.00
78411;BME280;67706;51.074;-1.796;2024-02-04T06:17:06;102179.25;;;11.45;100.00
78411;BME280;67706;51.074;-1.796;2024-02-04T06:19:33;102187.50;;;11.45;100.00
78411;BME280;67706;51.074;-1.796;2024-02-04T06:22:00;102178.41;;;11.44;100.00
78411;BME280;67706;51.074;-1.796;2024-02-04T06:24:27;102180.97;;;11.46;100.00
78411;BME280;67706;51.074;-1.796;2024-02-04T06:26:55;102181.69;;;11.48;100.00
78411;BME280;67706;51.074;-1.796;2024-02-04T06:29:22;102172.56;;;11.47;100.00
78411;BME280;67706;51.074;-1.796;2024-02-04T06:31:48;102178.94;;;11.48;100.00
78411;BME280;67706;51.074;-1.796;2024-02-04T06:34:15;102176.19;;;11.48;100.00
78411;BME280;67706;51.074;-1.796;2024-02-04T06:36:42;102174.28;;;11.48;100.00
78411;BME280;67706;51.074;-1.796;2024-02-04T06:39:10;102178.22;;;11.46;100.00
78411;BME280;67706;51.074;-1.796;2024-02-04T06:41:37;102185.94;;;11.50;100.00
78411;BME280;67706;51.074;-1.796;2024-02-04T06:44:05;102177.03;;;11.48;100.00
78411;BME280;67706;51.074;-1.796;2024-02-04T06:46:32;102170.34;;;11.43;100.00
78411;BME280;67706;51.074;-1.796;2024-02-04T06:48:58;102170.84;;;11.38;100.00
78411;BME280;67706;51.074;-1.796;2024-02-04T06:51:26;102176.34;;;11.38;100.00
78411;BME280;67706;51.074;-1.796;2024-02-04T06:53:53;102181.81;;;11.38;100.00
78411;BME280;67706;51.074;-1.796;2024-02-04T06:56:19;102173.94;;;11.35;100.00
78411;BME280;67706;51.074;-1.796;2024-02-04T06:58:46;102179.94;;;11.39;100.00
78411;BME280;67706;51.074;-1.796;2024-02-04T07:01:14;102184.06;;;11.43;100.00
78411;BME280;67706;51.074;-1.796;2024-02-04T07:03:41;102181.31;;;11.43;100.00
78411;BME280;67706;51.074;-1.796;2024-02-04T07:06:08;102178.22;;;11.38;100.00
78411;BME280;67706;51.074;-1.796;2024-02-04T07:08:34;102182.88;;;11.37;100.00
78411;BME280;67706;51.074;-1.796;2024-02-04T07:11:01;102175.13;;;11.41;100.00
78411;BME280;67706;51.074;-1.796;2024-02-04T07:13:28;102173.06;;;11.43;100.00
78411;BME280;67706;51.074;-1.796;2024-02-04T07:15:55;102175.13;;;11.41;100.00
78411;BME280;67706;51.074;-1.796;2024-02-04T07:18:23;102166.53;;;11.44;100.00
78411;BME280;67706;51.074;-1.796;2024-02-04T07:20:50;102163.66;;;11.37;100.00
78411;BME280;67706;51.074;-1.796;2024-02-04T07:23:16;102174.09;;;11.34;100.00
78411;BME280;67706;51.074;-1.796;2024-02-04T07:25:43;102163.28;;;11.32;100.00
78411;BME280;67706;51.074;-1.796;2024-02-04T07:28:10;102162.78;;;11.29;100.00
78411;BME280;67706;51.074;-1.796;2024-02-04T07:30:36;102165.53;;;11.29;100.00
78411;BME280;67706;51.074;-1.796;2024-02-04T07:33:03;102166.34;;;11.29;100.00
78411;BME280;67706;51.074;-1.796;2024-02-04T07:35:32;102174.59;;;11.29;100.00
78411;BME280;67706;51.074;-1.796;2024-02-04T07:37:58;102169.78;;;11.23;100.00
78411;BME280;67706;51.074;-1.796;2024-02-04T07:40:25;102171.69;;;11.31;100.00
78411;BME280;67706;51.074;-1.796;2024-02-04T07:42:53;102166.03;;;11.32;100.00
78411;BME280;67706;51.074;-1.796;2024-02-04T07:45:20;102158.47;;;11.34;100.00
78411;BME280;67706;51.074;-1.796;2024-02-04T07:47:46;102162.41;;;11.32;100.00
78411;BME280;67706;51.074;-1.796;2024-02-04T07:50:13;102155.72;;;11.34;100.00
78411;BME280;67706;51.074;-1.796;2024-02-04T07:52:41;102162.41;;;11.32;100.00
78411;BME280;67706;51.074;-1.796;2024-02-04T07:55:08;102155.91;;;11.33;100.00
78411;BME280;67706;51.074;-1.796;2024-02-04T07:57:35;102168.44;;;11.35;100.00
78411;BME280;67706;51.074;-1.796;2024-02-04T08:00:02;102165.84;;;11.34;100.00
78411;BME280;67706;51.074;-1.796;2024-02-04T08:02:31;102174.28;;;11.32;100.00
78411;BME280;67706;51.074;-1.796;2024-02-04T08:04:58;102177.88;;;11.33;100.00
78411;BME280;67706;51.074;-1.796;2024-02-04T08:07:25;102182.34;;;11.34;100.00
78411;BME280;67706;51.074;-1.796;2024-02-04T08:09:52;102176.50;;;11.37;100.00
78411;BME280;67706;51.074;-1.796;2024-02-04T08:12:20;102184.06;;;11.43;100.00
78411;BME280;67706;51.074;-1.796;2024-02-04T08:14:47;102181.13;;;11.44;100.00
78411;BME280;67706;51.074;-1.796;2024-02-04T08:17:13;102185.09;;;11.42;100.00
78411;BME280;67706;51.074;-1.796;2024-02-04T08:19:40;102198.00;;;11.41;100.00
78411;BME280;67706;51.074;-1.796;2024-02-04T08:22:07;102191.94;;;11.38;100.00
78411;BME280;67706;51.074;-1.796;2024-02-04T08:24:34;102203.47;;;11.41;100.00
78411;BME280;67706;51.074;-1.796;2024-02-04T08:27:03;102196.94;;;11.42;100.00
78411;BME280;67706;51.074;-1.796;2024-02-04T08:29:30;102199.88;;;11.41;100.00
78411;BME280;67706;51.074;-1.796;2024-02-04T08:31:57;102196.06;;;11.42;100.00
78411;BME280;67706;51.074;-1.796;2024-02-04T08:34:23;102191.81;;;11.39;100.00
78411;BME280;67706;51.074;-1.796;2024-02-04T08:36:51;102195.91;;;11.35;100.00
78411;BME280;67706;51.074;-1.796;2024-02-04T08:39:17;102189.88;;;11.40;100.00
78411;BME280;67706;51.074;-1.796;2024-02-04T08:41:44;102186.47;;;11.46;100.00
78411;BME280;67706;51.074;-1.796;2024-02-04T08:44:12;102185.13;;;11.50;100.00
78411;BME280;67706;51.074;-1.796;2024-02-04T08:46:39;102188.56;;;11.52;100.00
78411;BME280;67706;51.074;-1.796;2024-02-04T08:49:05;102188.19;;;11.47;100.00
78411;BME280;67706;51.074;-1.796;2024-02-04T08:51:32;102190.59;;;11.50;100.00
78411;BME280;67706;51.074;-1.796;2024-02-04T08:53:59;102200.91;;;11.48;100.00
78411;BME280;67706;51.074;-1.796;2024-02-04T08:56:25;102194.03;;;11.52;100.00
78411;BME280;67706;51.074;-1.796;2024-02-04T08:58:52;102199.88;;;11.57;100.00
78411;BME280;67706;51.074;-1.796;2024-02-04T09:01:20;102205.38;;;11.57;100.00
78411;BME280;67706;51.074;-1.796;2024-02-04T09:03:47;102196.44;;;11.55;100.00
78411;BME280;67706;51.074;-1.796;2024-02-04T09:06:14;102208.47;;;11.54;100.00
78411;BME280;67706;51.074;-1.796;2024-02-04T09:08:41;102204.84;;;11.53;100.00
78411;BME280;67706;51.074;-1.796;2024-02-04T09:11:07;102210.53;;;11.60;100.00
78411;BME280;67706;51.074;-1.796;2024-02-04T09:13:34;102218.09;;;11.58;100.00
78411;BME280;67706;51.074;-1.796;2024-02-04T09:16:01;102223.91;;;11.55;100.00
78411;BME280;67706;51.074;-1.796;2024-02-04T09:18:29;102217.41;;;11.48;100.00
78411;BME280;67706;51.074;-1.796;2024-02-04T09:20:56;102228.41;;;11.48;100.00
78411;BME280;67706;51.074;-1.796;2024-02-04T09:23:22;102234.72;;;11.48;100.00
78411;BME280;67706;51.074;-1.796;2024-02-04T09:25:49;102230.78;;;11.51;100.00
78411;BME280;67706;51.074;-1.796;2024-02-04T09:28:16;102231.97;;;11.48;100.00
78411;BME280;67706;51.074;-1.796;2024-02-04T09:30:42;102237.66;;;11.47;100.00
78411;BME280;67706;51.074;-1.796;2024-02-04T09:33:09;102237.47;;;11.48;100.00
78411;BME280;67706;51.074;-1.796;2024-02-04T09:35:37;102238.34;;;11.49;100.00
78411;BME280;67706;51.074;-1.796;2024-02-04T09:38:04;102233.53;;;11.51;100.00
78411;BME280;67706;51.074;-1.796;2024-02-04T09:40:31;102226.34;;;11.58;100.00
78411;BME280;67706;51.074;-1.796;2024-02-04T09:42:59;102229.09;;;11.58;100.00
78411;BME280;67706;51.074;-1.796;2024-02-04T09:45:26;102236.31;;;11.67;100.00
78411;BME280;67706;51.074;-1.796;2024-02-04T09:47:53;102224.50;;;11.66;100.00
78411;BME280;67706;51.074;-1.796;2024-02-04T09:50:20;102229.41;;;11.63;100.00
78411;BME280;67706;51.074;-1.796;2024-02-04T09:52:58;102230.09;;;11.65;100.00
78411;BME280;67706;51.074;-1.796;2024-02-04T09:55:26;102224.28;;;11.60;100.00
78411;BME280;67706;51.074;-1.796;2024-02-04T09:57:53;102224.66;;;11.73;100.00
78411;BME280;67706;51.074;-1.796;2024-02-04T10:00:20;102211.44;;;11.76;100.00
78411;BME280;67706;51.074;-1.796;2024-02-04T10:02:47;102207.13;;;11.74;100.00
78411;BME280;67706;51.074;-1.796;2024-02-04T10:05:14;102216.72;;;11.86;100.00
78411;BME280;67706;51.074;-1.796;2024-02-04T10:07:41;102218.78;;;11.84;100.00
78411;BME280;67706;51.074;-1.796;2024-02-04T10:10:11;102232.53;;;11.92;100.00
78411;BME280;67706;51.074;-1.796;2024-02-04T10:12:38;102226.03;;;11.85;100.00
78411;BME280;67706;51.074;-1.796;2024-02-04T10:15:07;102219.47;;;11.94;100.00
78411;BME280;67706;51.074;-1.796;2024-02-04T10:17:34;102230.84;;;11.91;100.00
78411;BME280;67706;51.074;-1.796;2024-02-04T10:20:00;102231.00;;;11.98;100.00
78411;BME280;67706;51.074;-1.796;2024-02-04T10:22:28;102228.75;;;12.01;100.00
78411;BME280;67706;51.074;-1.796;2024-02-04T10:25:05;102237.19;;;12.00;100.00
78411;BME280;67706;51.074;-1.796;2024-02-04T10:27:34;102233.56;;;11.99;100.00
78411;BME280;67706;51.074;-1.796;2024-02-04T10:30:00;102225.81;;;12.03;100.00
78411;BME280;67706;51.074;-1.796;2024-02-04T10:32:27;102221.00;;;12.05;100.00
78411;BME280;67706;51.074;-1.796;2024-02-04T10:34:54;102229.94;;;12.07;100.00
78411;BME280;67706;51.074;-1.796;2024-02-04T10:37:20;102228.75;;;12.09;100.00
78411;BME280;67706;51.074;-1.796;2024-02-04T10:39:47;102229.63;;;12.10;100.00
78411;BME280;67706;51.074;-1.796;2024-02-04T10:42:15;102225.31;;;12.07;100.00
78411;BME280;67706;51.074;-1.796;2024-02-04T10:44:45;102228.41;;;12.12;100.00
78411;BME280;67706;51.074;-1.796;2024-02-04T10:47:16;102232.53;;;12.16;100.00
78411;BME280;67706;51.074;-1.796;2024-02-04T10:49:50;102231.81;;;12.22;100.00
78411;BME280;67706;51.074;-1.796;2024-02-04T10:52:18;102218.75;;;12.24;100.00
78411;BME280;67706;51.074;-1.796;2024-02-04T10:54:46;102211.00;;;12.28;100.00
78411;BME280;67706;51.074;-1.796;2024-02-04T10:57:13;102212.34;;;12.32;100.00
78411;BME280;67706;51.074;-1.796;2024-02-04T10:59:46;102221.16;;;12.35;100.00
78411;BME280;67706;51.074;-1.796;2024-02-04T11:02:15;102224.88;;;12.42;100.00
78411;BME280;67706;51.074;-1.796;2024-02-04T11:04:42;102226.09;;;12.48;100.00
78411;BME280;67706;51.074;-1.796;2024-02-04T11:07:10;102224.22;;;12.40;100.00
78411;BME280;67706;51.074;-1.796;2024-02-04T11:09:36;102230.91;;;12.46;100.00
78411;BME280;67706;51.074;-1.796;2024-02-04T11:12:06;102234.50;;;12.46;100.00
78411;BME280;67706;51.074;-1.796;2024-02-04T11:14:37;102225.72;;;12.51;100.00
78411;BME280;67706;51.074;-1.796;2024-02-04T11:17:19;102230.56;;;12.49;100.00
78411;BME280;67706;51.074;-1.796;2024-02-04T11:19:59;102230.22;;;12.52;100.00
78411;BME280;67706;51.074;-1.796;2024-02-04T11:22:42;102225.22;;;12.47;100.00
78411;BME280;67706;51.074;-1.796;2024-02-04T11:25:31;102217.13;;;12.54;100.00
78411;BME280;67706;51.074;-1.796;2024-02-04T11:28:04;102212.84;;;12.51;100.00
78411;BME280;67706;51.074;-1.796;2024-02-04T11:30:32;102213.88;;;12.50;100.00
78411;BME280;67706;51.074;-1.796;2024-02-04T11:33:01;102218.19;;;12.45;100.00
78411;BME280;67706;51.074;-1.796;2024-02-04T11:35:29;102208.03;;;12.45;100.00
78411;BME280;67706;51.074;-1.796;2024-02-04T11:37:56;102214.25;;;12.39;100.00
78411;BME280;67706;51.074;-1.796;2024-02-04T11:40:23;102206.31;;;12.44;100.00
78411;BME280;67706;51.074;-1.796;2024-02-04T11:42:49;102206.66;;;12.49;100.00
78411;BME280;67706;51.074;-1.796;2024-02-04T11:45:16;102198.03;;;12.52;100.00
78411;BME280;67706;51.074;-1.796;2024-02-04T11:47:43;102193.91;;;12.56;100.00
78411;BME280;67706;51.074;-1.796;2024-02-04T11:50:11;102186.84;;;12.54;100.00
78411;BME280;67706;51.074;-1.796;2024-02-04T11:52:37;102187.00;;;12.60;100.00
78411;BME280;67706;51.074;-1.796;2024-02-04T11:55:05;102198.00;;;12.60;100.00
78411;BME280;67706;51.074;-1.796;2024-02-04T11:57:33;102185.59;;;12.64;100.00
78411;BME280;67706;51.074;-1.796;2024-02-04T12:00:00;102180.97;;;12.65;100.00
78411;BME280;67706;51.074;-1.796;2024-02-04T12:02:27;102187.31;;;12.65;100.00
78411;BME280;67706;51.074;-1.796;2024-02-04T12:04:54;102172.66;;;12.73;100.00
78411;BME280;67706;51.074;-1.796;2024-02-04T12:07:23;102178.16;;;12.73;100.00
78411;BME280;67706;51.074;-1.796;2024-02-04T12:09:49;102170.72;;;12.82;100.00
78411;BME280;67706;51.074;-1.796;2024-02-04T12:12:16;102177.06;;;12.82;100.00
78411;BME280;67706;51.074;-1.796;2024-02-04T12:14:45;102164.13;;;12.91;100.00
78411;BME280;67706;51.074;-1.796;2024-02-04T12:17:12;102159.00;;;12.88;100.00
78411;BME280;67706;51.074;-1.796;2024-02-04T12:19:39;102152.06;;;12.92;100.00
78411;BME280;67706;51.074;-1.796;2024-02-04T12:22:06;102152.38;;;12.97;100.00
78411;BME280;67706;51.074;-1.796;2024-02-04T12:24:36;102155.69;;;12.92;100.00
78411;BME280;67706;51.074;-1.796;2024-02-04T12:27:04;102144.78;;;12.99;100.00
78411;BME280;67706;51.074;-1.796;2024-02-04T12:29:32;102140.81;;;13.01;100.00
78411;BME280;67706;51.074;-1.796;2024-02-04T12:31:59;102147.00;;;13.03;100.00